Millennium — 9HJF9 — position and weather

sailwx.info

Track history (hours):
 
Tides and Currents Weather Stations Pressure Air Temp Water Temp Dewpoint Dewpoint Depression Visibility Wind Speed Wind Dir Waves Ship Positions

Millennium

Last reported at 2020-Apr-02 21:28 UTC. Time now 2020-Apr-02 21:41 UTC.
Position N 32°43' W 117°10'.

Length 294 m; draft 8.4 m.

Type: Passenger vessel. MMSI: 249055000.

Date/timePositionNaut miles runAvg speedWind from/ knotsBaromVisibWave heightAir tempDewpointWater temp
2020-Apr-02 21:28N 32°43' W 117°10'0 0.0
2020-Apr-02 20:58N 32°43' W 117°10'0 0.0
2020-Apr-02 19:28N 32°43' W 117°10'0 0.0
2020-Apr-02 18:58N 32°43' W 117°10'0 0.0
2020-Apr-02 18:28N 32°43' W 117°10'4 8.1
2020-Apr-02 18:00N 32°42' W 117°06'4 1.6 160 / 61009.2 5.4 17.0 14.0
2020-Apr-02 15:30N 32°43' W 117°10'5 2.5
2020-Apr-02 13:30N 32°38' W 117°10'4 7.9
2020-Apr-02 13:00N 32°36' W 117°06'4 4.0 210 / 81016.210.8 14.3
2020-Apr-02 12:00N 32°38' W 117°10'4788.8
2020-Apr-02 12:00N 32°36' W 117°06'4 3.8 220 / 61016.210.8 14.5
2020-Apr-02 10:57N 32°38' W 117°10'0 0.0
2020-Apr-02 10:30N 32°38' W 117°10'0 0.1
2020-Apr-02 09:30N 32°38' W 117°10'0 0.0
2020-Apr-02 08:00N 32°38' W 117°10'0 0.0
2020-Apr-02 07:30N 32°38' W 117°10'0 0.0
2020-Apr-02 05:30N 32°38' W 117°10'0 0.0
2020-Apr-02 02:30N 32°38' W 117°10'0 0.0
2020-Apr-02 01:57N 32°38' W 117°10'0 0.0
2020-Apr-01 23:00N 32°38' W 117°10'0 0.0
2020-Apr-01 22:30N 32°38' W 117°10'0 0.0
2020-Apr-01 21:30N 32°38' W 117°10'0 0.1
2020-Apr-01 21:00N 32°38' W 117°10'0 0.0
2020-Apr-01 18:27N 32°38' W 117°10'0 0.0
2020-Apr-01 18:00N 32°38' W 117°10'0 0.0
2020-Apr-01 17:00N 32°38' W 117°10'0 0.0
2020-Apr-01 16:30N 32°38' W 117°10'0 0.0
2020-Apr-01 10:30N 32°38' W 117°10'0 0.0
2020-Apr-01 08:00N 32°38' W 117°10'0 0.0
2020-Apr-01 07:30N 32°38' W 117°10'0 0.0
2020-Mar-31 22:00N 32°38' W 117°10'0 0.1
2020-Mar-31 21:00N 32°38' W 117°10'0 0.0
2020-Mar-31 20:30N 32°38' W 117°10'0 0.0
2020-Mar-31 18:00N 32°38' W 117°10'0 0.0
2020-Mar-31 16:30N 32°38' W 117°10'0 0.0
2020-Mar-31 16:00N 32°38' W 117°10'0 0.0
2020-Mar-31 11:30N 32°38' W 117°10'0 0.0
2020-Mar-31 11:00N 32°38' W 117°10'0 0.0
2020-Mar-31 10:00N 32°38' W 117°10'0 0.0
2020-Mar-31 09:30N 32°38' W 117°10'0 0.0
2020-Mar-31 08:30N 32°38' W 117°10'0 0.0
2020-Mar-31 07:30N 32°38' W 117°10'0 0.0
2020-Mar-31 06:30N 32°38' W 117°10'0 0.0
2020-Mar-31 05:00N 32°38' W 117°10'0 0.0
2020-Mar-31 04:30N 32°38' W 117°10'0 0.0
2020-Mar-31 03:30N 32°38' W 117°10'0 0.0
2020-Mar-31 01:00N 32°38' W 117°10'0 0.0
2020-Mar-30 23:30N 32°38' W 117°10'0 0.0
2020-Mar-30 21:30N 32°38' W 117°10'0 0.0
2020-Mar-30 21:00N 32°38' W 117°10'0 0.0
2020-Mar-30 17:30N 32°38' W 117°10'0 0.0
2020-Mar-30 16:30N 32°38' W 117°10'0 0.0
2020-Mar-30 14:30N 32°38' W 117°10'0 0.0
2020-Mar-30 14:00N 32°38' W 117°10'0 0.0
2020-Mar-30 12:00N 32°38' W 117°10'8 5.3
2020-Mar-30 10:30N 32°36' W 117°19'19 9.6
2020-Mar-30 08:30N 32°26' W 117°39'5 9.7
2020-Mar-30 08:00N 32°23' W 117°43'19 9.5
2020-Mar-30 06:00N 32°04' W 117°42'510.5
2020-Mar-30 05:30N 31°59' W 117°40'  
2020-Mar-26 09:59N 32°05' W 117°18'7 9.6
2020-Mar-26 09:14N 32°01' W 117°25'29 2.3
2020-Mar-25 20:21N 32°14' W 117°56'44 9.0
2020-Mar-25 15:30N 32°37' W 117°13'2 1.2
2020-Mar-25 13:29N 32°38' W 117°10'0 0.0
2020-Mar-25 12:59N 32°38' W 117°10'0 0.0
2020-Mar-25 10:29N 32°38' W 117°10'0 0.0
2020-Mar-25 08:29N 32°38' W 117°10'0 0.0
2020-Mar-25 07:59N 32°38' W 117°10'0 0.0
2020-Mar-25 05:29N 32°38' W 117°10'0 0.0
2020-Mar-25 01:29N 32°38' W 117°10'0 0.0
2020-Mar-25 00:59N 32°38' W 117°10'0 0.0
2020-Mar-25 00:29N 32°38' W 117°10'0 0.0
2020-Mar-24 22:59N 32°38' W 117°10'0 0.0
2020-Mar-24 21:29N 32°38' W 117°10'0 0.0
2020-Mar-24 19:59N 32°38' W 117°10'0 0.0
2020-Mar-24 19:29N 32°38' W 117°10'0 0.0
2020-Mar-24 18:59N 32°38' W 117°10'0 0.0
2020-Mar-24 17:29N 32°38' W 117°10'0 0.1
2020-Mar-24 16:59N 32°38' W 117°10'0 0.0
2020-Mar-24 15:29N 32°38' W 117°10'0 0.0
2020-Mar-24 13:59N 32°38' W 117°10'0 0.0
2020-Mar-24 13:29N 32°38' W 117°10'0 0.0
2020-Mar-24 12:59N 32°38' W 117°10'0 0.0
2020-Mar-24 09:59N 32°38' W 117°10'0 0.0
2020-Mar-24 08:29N 32°38' W 117°10'0 0.0
2020-Mar-24 07:59N 32°38' W 117°10'0 0.0
2020-Mar-24 07:29N 32°38' W 117°10'0 0.0
2020-Mar-24 05:29N 32°38' W 117°10'0 0.0
2020-Mar-24 04:29N 32°38' W 117°10'0 0.0
2020-Mar-24 01:29N 32°38' W 117°10'0 0.0
2020-Mar-24 00:29N 32°38' W 117°10'0 0.0
2020-Mar-23 23:29N 32°38' W 117°10'  
Track history (hours):
 
Tides and Currents Weather Stations Pressure Air Temp Water Temp Dewpoint Dewpoint Depression Visibility Wind Speed Wind Dir Waves Ship Positions

Millennium

Last reported at 2020-Apr-02 21:28 UTC. Time now 2020-Apr-02 21:41 UTC.
Position N 32°43' W 117°10'.

Length 294 m; draft 8.4 m.

Type: Passenger vessel. MMSI: 249055000.

Date/timePositionNaut miles runAvg speedWind from/ knotsBaromVisibWave heightAir tempDewpointWater temp
2020-Apr-02 21:28N 32°43' W 117°10'0 0.0
2020-Apr-02 20:58N 32°43' W 117°10'0 0.0
2020-Apr-02 19:28N 32°43' W 117°10'0 0.0
2020-Apr-02 18:58N 32°43' W 117°10'0 0.0
2020-Apr-02 18:28N 32°43' W 117°10'4 8.1
2020-Apr-02 18:00N 32°42' W 117°06'4 1.6 160 / 61009.2 5.4 17.0 14.0
2020-Apr-02 15:30N 32°43' W 117°10'5 2.5
2020-Apr-02 13:30N 32°38' W 117°10'4 7.9
2020-Apr-02 13:00N 32°36' W 117°06'4 4.0 210 / 81016.210.8 14.3
2020-Apr-02 12:00N 32°38' W 117°10'4788.8
2020-Apr-02 12:00N 32°36' W 117°06'4 3.8 220 / 61016.210.8 14.5
2020-Apr-02 10:57N 32°38' W 117°10'0 0.0
2020-Apr-02 10:30N 32°38' W 117°10'0 0.1
2020-Apr-02 09:30N 32°38' W 117°10'0 0.0
2020-Apr-02 08:00N 32°38' W 117°10'0 0.0
2020-Apr-02 07:30N 32°38' W 117°10'0 0.0
2020-Apr-02 05:30N 32°38' W 117°10'0 0.0
2020-Apr-02 02:30N 32°38' W 117°10'0 0.0
2020-Apr-02 01:57N 32°38' W 117°10'0 0.0
2020-Apr-01 23:00N 32°38' W 117°10'0 0.0
2020-Apr-01 22:30N 32°38' W 117°10'0 0.0
2020-Apr-01 21:30N 32°38' W 117°10'0 0.1
2020-Apr-01 21:00N 32°38' W 117°10'0 0.0
2020-Apr-01 18:27N 32°38' W 117°10'0 0.0
2020-Apr-01 18:00N 32°38' W 117°10'0 0.0
2020-Apr-01 17:00N 32°38' W 117°10'0 0.0
2020-Apr-01 16:30N 32°38' W 117°10'0 0.0
2020-Apr-01 10:30N 32°38' W 117°10'0 0.0
2020-Apr-01 08:00N 32°38' W 117°10'0 0.0
2020-Apr-01 07:30N 32°38' W 117°10'0 0.0
2020-Mar-31 22:00N 32°38' W 117°10'0 0.1
2020-Mar-31 21:00N 32°38' W 117°10'0 0.0
2020-Mar-31 20:30N 32°38' W 117°10'0 0.0
2020-Mar-31 18:00N 32°38' W 117°10'0 0.0
2020-Mar-31 16:30N 32°38' W 117°10'0 0.0
2020-Mar-31 16:00N 32°38' W 117°10'0 0.0
2020-Mar-31 11:30N 32°38' W 117°10'0 0.0
2020-Mar-31 11:00N 32°38' W 117°10'0 0.0
2020-Mar-31 10:00N 32°38' W 117°10'0 0.0
2020-Mar-31 09:30N 32°38' W 117°10'0 0.0
2020-Mar-31 08:30N 32°38' W 117°10'0 0.0
2020-Mar-31 07:30N 32°38' W 117°10'0 0.0
2020-Mar-31 06:30N 32°38' W 117°10'0 0.0
2020-Mar-31 05:00N 32°38' W 117°10'0 0.0
2020-Mar-31 04:30N 32°38' W 117°10'0 0.0
2020-Mar-31 03:30N 32°38' W 117°10'0 0.0
2020-Mar-31 01:00N 32°38' W 117°10'0 0.0
2020-Mar-30 23:30N 32°38' W 117°10'0 0.0
2020-Mar-30 21:30N 32°38' W 117°10'0 0.0
2020-Mar-30 21:00N 32°38' W 117°10'0 0.0
2020-Mar-30 17:30N 32°38' W 117°10'0 0.0
2020-Mar-30 16:30N 32°38' W 117°10'0 0.0
2020-Mar-30 14:30N 32°38' W 117°10'0 0.0
2020-Mar-30 14:00N 32°38' W 117°10'0 0.0
2020-Mar-30 12:00N 32°38' W 117°10'8 5.3
2020-Mar-30 10:30N 32°36' W 117°19'19 9.6
2020-Mar-30 08:30N 32°26' W 117°39'5 9.7
2020-Mar-30 08:00N 32°23' W 117°43'19 9.5
2020-Mar-30 06:00N 32°04' W 117°42'510.5
2020-Mar-30 05:30N 31°59' W 117°40'  
2020-Mar-26 09:59N 32°05' W 117°18'7 9.6
2020-Mar-26 09:14N 32°01' W 117°25'29 2.3
2020-Mar-25 20:21N 32°14' W 117°56'44 9.0
2020-Mar-25 15:30N 32°37' W 117°13'2 1.2
2020-Mar-25 13:29N 32°38' W 117°10'0 0.0
2020-Mar-25 12:59N 32°38' W 117°10'0 0.0
2020-Mar-25 10:29N 32°38' W 117°10'0 0.0
2020-Mar-25 08:29N 32°38' W 117°10'0 0.0
2020-Mar-25 07:59N 32°38' W 117°10'0 0.0
2020-Mar-25 05:29N 32°38' W 117°10'0 0.0
2020-Mar-25 01:29N 32°38' W 117°10'0 0.0
2020-Mar-25 00:59N 32°38' W 117°10'0 0.0
2020-Mar-25 00:29N 32°38' W 117°10'0 0.0
2020-Mar-24 22:59N 32°38' W 117°10'0 0.0
2020-Mar-24 21:29N 32°38' W 117°10'0 0.0
2020-Mar-24 19:59N 32°38' W 117°10'0 0.0
2020-Mar-24 19:29N 32°38' W 117°10'0 0.0
2020-Mar-24 18:59N 32°38' W 117°10'0 0.0
2020-Mar-24 17:29N 32°38' W 117°10'0 0.1
2020-Mar-24 16:59N 32°38' W 117°10'0 0.0
2020-Mar-24 15:29N 32°38' W 117°10'0 0.0
2020-Mar-24 13:59N 32°38' W 117°10'0 0.0
2020-Mar-24 13:29N 32°38' W 117°10'0 0.0
2020-Mar-24 12:59N 32°38' W 117°10'0 0.0
2020-Mar-24 09:59N 32°38' W 117°10'0 0.0
2020-Mar-24 08:29N 32°38' W 117°10'0 0.0
2020-Mar-24 07:59N 32°38' W 117°10'0 0.0
2020-Mar-24 07:29N 32°38' W 117°10'0 0.0
2020-Mar-24 05:29N 32°38' W 117°10'0 0.0
2020-Mar-24 04:29N 32°38' W 117°10'0 0.0
2020-Mar-24 01:29N 32°38' W 117°10'0 0.0
2020-Mar-24 00:29N 32°38' W 117°10'0 0.0
2020-Mar-23 23:29N 32°38' W 117°10'  

Dump ship's entire track history